sensor_id;sensor_type;location;lat;lon;timestamp;temperature;humidity
60701;DHT22;46541;49.894;10.886;2023-12-07T00:02:03;4.10;99.90
60701;DHT22;46541;49.894;10.886;2023-12-07T00:04:31;4.20;99.90
60701;DHT22;46541;49.894;10.886;2023-12-07T00:06:57;4.20;99.90
60701;DHT22;46541;49.894;10.886;2023-12-07T00:09:24;4.20;99.90
60701;DHT22;46541;49.894;10.886;2023-12-07T00:11:51;4.20;99.90
60701;DHT22;46541;49.894;10.886;2023-12-07T00:14:18;4.20;99.90
60701;DHT22;46541;49.894;10.886;2023-12-07T00:16:44;4.20;99.90
60701;DHT22;46541;49.894;10.886;2023-12-07T00:19:11;4.20;99.90
60701;DHT22;46541;49.894;10.886;2023-12-07T00:21:38;4.20;99.90
60701;DHT22;46541;49.894;10.886;2023-12-07T00:24:05;4.10;99.90
60701;DHT22;46541;49.894;10.886;2023-12-07T00:26:32;4.10;99.90
60701;DHT22;46541;49.894;10.886;2023-12-07T00:28:58;4.10;99.90
60701;DHT22;46541;49.894;10.886;2023-12-07T00:31:25;4.10;99.90
60701;DHT22;46541;49.894;10.886;2023-12-07T00:33:52;4.00;99.90
60701;DHT22;46541;49.894;10.886;2023-12-07T00:36:19;4.00;99.90
60701;DHT22;46541;49.894;10.886;2023-12-07T00:38:46;4.00;99.90
60701;DHT22;46541;49.894;10.886;2023-12-07T00:41:13;3.90;99.90
60701;DHT22;46541;49.894;10.886;2023-12-07T00:43:40;3.90;99.90
60701;DHT22;46541;49.894;10.886;2023-12-07T00:46:07;3.90;99.90
60701;DHT22;46541;49.894;10.886;2023-12-07T00:48:35;3.90;99.90
60701;DHT22;46541;49.894;10.886;2023-12-07T00:51:01;3.90;99.90
60701;DHT22;46541;49.894;10.886;2023-12-07T00:53:29;4.00;99.90
60701;DHT22;46541;49.894;10.886;2023-12-07T00:55:56;3.90;99.90
60701;DHT22;46541;49.894;10.886;2023-12-07T00:58:22;3.90;99.90
60701;DHT22;46541;49.894;10.886;2023-12-07T01:00:49;4.00;99.90
60701;DHT22;46541;49.894;10.886;2023-12-07T01:03:16;4.00;99.90
60701;DHT22;46541;49.894;10.886;2023-12-07T01:05:43;4.00;99.90
60701;DHT22;46541;49.894;10.886;2023-12-07T01:08:10;4.00;99.90
60701;DHT22;46541;49.894;10.886;2023-12-07T01:10:37;4.00;99.90
60701;DHT22;46541;49.894;10.886;2023-12-07T01:13:04;4.10;99.90
60701;DHT22;46541;49.894;10.886;2023-12-07T01:15:31;4.00;99.90
60701;DHT22;46541;49.894;10.886;2023-12-07T01:17:57;4.00;99.90
60701;DHT22;46541;49.894;10.886;2023-12-07T01:20:24;4.00;99.90
60701;DHT22;46541;49.894;10.886;2023-12-07T01:22:51;4.00;99.90
60701;DHT22;46541;49.894;10.886;2023-12-07T01:25:18;4.00;99.90
60701;DHT22;46541;49.894;10.886;2023-12-07T01:27:49;4.00;99.90
60701;DHT22;46541;49.894;10.886;2023-12-07T01:30:16;4.00;99.90
60701;DHT22;46541;49.894;10.886;2023-12-07T01:32:43;4.10;99.90
60701;DHT22;46541;49.894;10.886;2023-12-07T01:35:10;4.10;99.90
60701;DHT22;46541;49.894;10.886;2023-12-07T01:37:37;4.00;99.90
60701;DHT22;46541;49.894;10.886;2023-12-07T01:40:05;4.00;99.90
60701;DHT22;46541;49.894;10.886;2023-12-07T01:42:37;4.00;99.90
60701;DHT22;46541;49.894;10.886;2023-12-07T01:45:05;4.00;99.90
60701;DHT22;46541;49.894;10.886;2023-12-07T01:47:34;4.00;99.90
60701;DHT22;46541;49.894;10.886;2023-12-07T01:50:02;4.00;99.90
60701;DHT22;46541;49.894;10.886;2023-12-07T01:52:32;3.90;99.90
60701;DHT22;46541;49.894;10.886;2023-12-07T01:55:02;3.90;99.90
60701;DHT22;46541;49.894;10.886;2023-12-07T01:57:29;4.00;99.90
60701;DHT22;46541;49.894;10.886;2023-12-07T01:59:57;4.00;99.90
60701;DHT22;46541;49.894;10.886;2023-12-07T02:02:24;3.90;99.90
60701;DHT22;46541;49.894;10.886;2023-12-07T02:04:51;3.90;99.90
60701;DHT22;46541;49.894;10.886;2023-12-07T02:07:18;3.90;99.90
60701;DHT22;46541;49.894;10.886;2023-12-07T02:09:46;3.90;99.90
60701;DHT22;46541;49.894;10.886;2023-12-07T02:12:13;4.00;99.90
60701;DHT22;46541;49.894;10.886;2023-12-07T02:14:39;4.00;99.90
60701;DHT22;46541;49.894;10.886;2023-12-07T02:17:19;4.00;99.90
60701;DHT22;46541;49.894;10.886;2023-12-07T02:22:32;3.90;99.90
60701;DHT22;46541;49.894;10.886;2023-12-07T02:25:06;4.00;99.90
60701;DHT22;46541;49.894;10.886;2023-12-07T02:30:11;3.90;99.90
60701;DHT22;46541;49.894;10.886;2023-12-07T02:32:40;3.90;99.90
60701;DHT22;46541;49.894;10.886;2023-12-07T02:35:08;3.90;99.90
60701;DHT22;46541;49.894;10.886;2023-12-07T02:37:42;4.00;99.90
60701;DHT22;46541;49.894;10.886;2023-12-07T02:40:10;3.90;99.90
60701;DHT22;46541;49.894;10.886;2023-12-07T02:42:39;3.90;99.90
60701;DHT22;46541;49.894;10.886;2023-12-07T02:45:08;3.90;99.90
60701;DHT22;46541;49.894;10.886;2023-12-07T02:47:35;3.90;99.90
60701;DHT22;46541;49.894;10.886;2023-12-07T02:50:04;3.90;99.90
60701;DHT22;46541;49.894;10.886;2023-12-07T02:52:32;3.80;99.90
60701;DHT22;46541;49.894;10.886;2023-12-07T02:54:59;3.80;99.90
60701;DHT22;46541;49.894;10.886;2023-12-07T02:57:26;3.80;99.90
60701;DHT22;46541;49.894;10.886;2023-12-07T02:59:53;3.80;99.90
60701;DHT22;46541;49.894;10.886;2023-12-07T03:02:19;3.80;99.90
60701;DHT22;46541;49.894;10.886;2023-12-07T03:04:47;3.80;99.90
60701;DHT22;46541;49.894;10.886;2023-12-07T03:07:14;3.80;99.90
60701;DHT22;46541;49.894;10.886;2023-12-07T03:09:41;3.80;99.90
60701;DHT22;46541;49.894;10.886;2023-12-07T03:12:08;3.80;99.90
60701;DHT22;46541;49.894;10.886;2023-12-07T03:14:35;3.80;99.90
60701;DHT22;46541;49.894;10.886;2023-12-07T03:17:02;3.80;99.90
60701;DHT22;46541;49.894;10.886;2023-12-07T03:19:28;3.80;99.90
60701;DHT22;46541;49.894;10.886;2023-12-07T03:21:55;3.70;99.90
60701;DHT22;46541;49.894;10.886;2023-12-07T03:24:22;3.70;99.90
60701;DHT22;46541;49.894;10.886;2023-12-07T03:26:49;3.70;99.90
60701;DHT22;46541;49.894;10.886;2023-12-07T03:29:15;3.70;99.90
60701;DHT22;46541;49.894;10.886;2023-12-07T03:31:42;3.70;99.90
60701;DHT22;46541;49.894;10.886;2023-12-07T03:34:09;3.70;99.90
60701;DHT22;46541;49.894;10.886;2023-12-07T03:36:36;3.60;99.90
60701;DHT22;46541;49.894;10.886;2023-12-07T03:39:03;3.60;99.90
60701;DHT22;46541;49.894;10.886;2023-12-07T03:41:31;3.60;99.90
60701;DHT22;46541;49.894;10.886;2023-12-07T03:43:58;3.50;99.90
60701;DHT22;46541;49.894;10.886;2023-12-07T03:46:25;3.50;99.90
60701;DHT22;46541;49.894;10.886;2023-12-07T03:48:52;3.50;99.90
60701;DHT22;46541;49.894;10.886;2023-12-07T03:51:18;3.40;99.90
60701;DHT22;46541;49.894;10.886;2023-12-07T03:53:45;3.40;99.90
60701;DHT22;46541;49.894;10.886;2023-12-07T03:56:25;3.40;99.90
60701;DHT22;46541;49.894;10.886;2023-12-07T03:58:52;3.30;99.90
60701;DHT22;46541;49.894;10.886;2023-12-07T04:01:26;3.30;99.90
60701;DHT22;46541;49.894;10.886;2023-12-07T04:03:55;3.30;99.90
60701;DHT22;46541;49.894;10.886;2023-12-07T04:06:23;3.20;99.90
60701;DHT22;46541;49.894;10.886;2023-12-07T04:08:50;3.20;99.90
60701;DHT22;46541;49.894;10.886;2023-12-07T04:11:17;3.20;99.90
60701;DHT22;46541;49.894;10.886;2023-12-07T04:13:44;3.20;99.90
60701;DHT22;46541;49.894;10.886;2023-12-07T04:16:11;3.20;99.90
60701;DHT22;46541;49.894;10.886;2023-12-07T04:18:38;3.10;99.90
60701;DHT22;46541;49.894;10.886;2023-12-07T04:21:05;3.10;99.90
60701;DHT22;46541;49.894;10.886;2023-12-07T04:23:32;3.10;99.90
60701;DHT22;46541;49.894;10.886;2023-12-07T04:25:59;3.10;99.90
60701;DHT22;46541;49.894;10.886;2023-12-07T04:28:26;3.10;99.90
60701;DHT22;46541;49.894;10.886;2023-12-07T04:30:53;3.10;99.90
60701;DHT22;46541;49.894;10.886;2023-12-07T04:33:20;3.00;99.90
60701;DHT22;46541;49.894;10.886;2023-12-07T04:35:47;3.00;99.90
60701;DHT22;46541;49.894;10.886;2023-12-07T04:38:14;2.90;99.90
60701;DHT22;46541;49.894;10.886;2023-12-07T04:40:40;2.90;99.90
60701;DHT22;46541;49.894;10.886;2023-12-07T04:43:08;2.90;99.90
60701;DHT22;46541;49.894;10.886;2023-12-07T04:45:36;2.90;99.90
60701;DHT22;46541;49.894;10.886;2023-12-07T04:48:03;2.90;99.90
60701;DHT22;46541;49.894;10.886;2023-12-07T04:50:31;2.80;99.90
60701;DHT22;46541;49.894;10.886;2023-12-07T04:52:57;2.90;99.90
60701;DHT22;46541;49.894;10.886;2023-12-07T04:55:24;2.90;99.90
60701;DHT22;46541;49.894;10.886;2023-12-07T04:57:51;2.80;99.90
60701;DHT22;46541;49.894;10.886;2023-12-07T05:00:18;2.70;99.90
60701;DHT22;46541;49.894;10.886;2023-12-07T05:02:45;2.70;99.90
60701;DHT22;46541;49.894;10.886;2023-12-07T05:05:12;2.70;99.90
60701;DHT22;46541;49.894;10.886;2023-12-07T05:07:39;2.70;99.90
60701;DHT22;46541;49.894;10.886;2023-12-07T05:10:06;2.60;99.90
60701;DHT22;46541;49.894;10.886;2023-12-07T05:12:33;2.60;99.90
60701;DHT22;46541;49.894;10.886;2023-12-07T05:15:00;2.70;99.90
60701;DHT22;46541;49.894;10.886;2023-12-07T05:17:26;2.70;99.90
60701;DHT22;46541;49.894;10.886;2023-12-07T05:19:53;2.70;99.90
60701;DHT22;46541;49.894;10.886;2023-12-07T05:22:20;2.70;99.90
60701;DHT22;46541;49.894;10.886;2023-12-07T05:24:48;2.60;99.90
60701;DHT22;46541;49.894;10.886;2023-12-07T05:27:16;2.60;99.90
60701;DHT22;46541;49.894;10.886;2023-12-07T05:29:43;2.50;99.90
60701;DHT22;46541;49.894;10.886;2023-12-07T05:32:10;2.50;99.90
60701;DHT22;46541;49.894;10.886;2023-12-07T05:34:37;2.40;99.90
60701;DHT22;46541;49.894;10.886;2023-12-07T05:37:04;2.40;99.90
60701;DHT22;46541;49.894;10.886;2023-12-07T05:39:31;2.30;99.90
60701;DHT22;46541;49.894;10.886;2023-12-07T05:41:58;2.20;99.90
60701;DHT22;46541;49.894;10.886;2023-12-07T05:44:24;2.20;99.90
60701;DHT22;46541;49.894;10.886;2023-12-07T05:46:51;2.30;99.90
60701;DHT22;46541;49.894;10.886;2023-12-07T05:49:18;2.30;99.90
60701;DHT22;46541;49.894;10.886;2023-12-07T05:51:45;2.30;99.90
60701;DHT22;46541;49.894;10.886;2023-12-07T05:54:12;2.30;99.90
60701;DHT22;46541;49.894;10.886;2023-12-07T05:56:38;2.30;99.90
60701;DHT22;46541;49.894;10.886;2023-12-07T05:59:06;2.20;99.90
60701;DHT22;46541;49.894;10.886;2023-12-07T06:01:32;2.20;99.90
60701;DHT22;46541;49.894;10.886;2023-12-07T06:04:02;2.20;99.90
60701;DHT22;46541;49.894;10.886;2023-12-07T06:06:29;2.10;99.90
60701;DHT22;46541;49.894;10.886;2023-12-07T06:08:56;2.10;99.90
60701;DHT22;46541;49.894;10.886;2023-12-07T06:11:22;2.10;99.90
60701;DHT22;46541;49.894;10.886;2023-12-07T06:13:49;2.10;99.90
60701;DHT22;46541;49.894;10.886;2023-12-07T06:16:16;2.10;99.90
60701;DHT22;46541;49.894;10.886;2023-12-07T06:18:45;2.20;99.90
60701;DHT22;46541;49.894;10.886;2023-12-07T06:21:13;2.10;99.90
60701;DHT22;46541;49.894;10.886;2023-12-07T06:23:40;2.00;99.90
60701;DHT22;46541;49.894;10.886;2023-12-07T06:26:08;2.00;99.90
60701;DHT22;46541;49.894;10.886;2023-12-07T06:28:35;1.90;99.90
60701;DHT22;46541;49.894;10.886;2023-12-07T06:31:05;1.90;99.90
60701;DHT22;46541;49.894;10.886;2023-12-07T06:33:33;1.80;99.90
60701;DHT22;46541;49.894;10.886;2023-12-07T06:36:01;1.90;99.90
60701;DHT22;46541;49.894;10.886;2023-12-07T06:38:31;1.80;99.90
60701;DHT22;46541;49.894;10.886;2023-12-07T06:40:58;1.80;99.90
60701;DHT22;46541;49.894;10.886;2023-12-07T06:43:24;1.80;99.90
60701;DHT22;46541;49.894;10.886;2023-12-07T06:45:51;1.80;99.90
60701;DHT22;46541;49.894;10.886;2023-12-07T06:48:20;1.80;99.90
60701;DHT22;46541;49.894;10.886;2023-12-07T06:50:47;1.80;99.90
60701;DHT22;46541;49.894;10.886;2023-12-07T06:53:14;1.80;99.90
60701;DHT22;46541;49.894;10.886;2023-12-07T06:55:42;1.80;99.90
60701;DHT22;46541;49.894;10.886;2023-12-07T06:58:11;1.80;99.90
60701;DHT22;46541;49.894;10.886;2023-12-07T07:00:38;1.80;99.90
60701;DHT22;46541;49.894;10.886;2023-12-07T07:03:05;1.80;99.90
60701;DHT22;46541;49.894;10.886;2023-12-07T07:05:33;1.80;99.90
60701;DHT22;46541;49.894;10.886;2023-12-07T07:08:00;1.90;99.90
60701;DHT22;46541;49.894;10.886;2023-12-07T07:10:26;1.80;99.90
60701;DHT22;46541;49.894;10.886;2023-12-07T07:12:53;1.80;99.90
60701;DHT22;46541;49.894;10.886;2023-12-07T07:15:20;1.80;99.90
60701;DHT22;46541;49.894;10.886;2023-12-07T07:17:47;1.80;99.90
60701;DHT22;46541;49.894;10.886;2023-12-07T07:20:14;1.70;99.90
60701;DHT22;46541;49.894;10.886;2023-12-07T07:22:41;1.70;99.90
60701;DHT22;46541;49.894;10.886;2023-12-07T07:25:09;1.70;99.90
60701;DHT22;46541;49.894;10.886;2023-12-07T07:27:35;1.70;99.90
60701;DHT22;46541;49.894;10.886;2023-12-07T07:30:02;1.70;99.90
60701;DHT22;46541;49.894;10.886;2023-12-07T07:32:31;1.70;99.90
60701;DHT22;46541;49.894;10.886;2023-12-07T07:34:58;1.70;99.90
60701;DHT22;46541;49.894;10.886;2023-12-07T07:37:26;1.80;99.90
60701;DHT22;46541;49.894;10.886;2023-12-07T07:39:53;1.80;99.90
60701;DHT22;46541;49.894;10.886;2023-12-07T07:42:20;1.90;99.90
60701;DHT22;46541;49.894;10.886;2023-12-07T07:44:47;1.90;99.90
60701;DHT22;46541;49.894;10.886;2023-12-07T07:47:14;1.80;99.90
60701;DHT22;46541;49.894;10.886;2023-12-07T07:49:40;1.80;99.90
60701;DHT22;46541;49.894;10.886;2023-12-07T07:52:08;1.80;99.90
60701;DHT22;46541;49.894;10.886;2023-12-07T07:54:35;1.90;99.90
60701;DHT22;46541;49.894;10.886;2023-12-07T07:57:02;1.90;99.90
60701;DHT22;46541;49.894;10.886;2023-12-07T07:59:30;2.00;99.90
60701;DHT22;46541;49.894;10.886;2023-12-07T08:01:57;2.00;99.90
60701;DHT22;46541;49.894;10.886;2023-12-07T08:04:24;2.00;99.90
60701;DHT22;46541;49.894;10.886;2023-12-07T08:06:51;2.00;99.90
60701;DHT22;46541;49.894;10.886;2023-12-07T08:09:18;2.00;99.90
60701;DHT22;46541;49.894;10.886;2023-12-07T08:11:44;2.10;99.90
60701;DHT22;46541;49.894;10.886;2023-12-07T08:14:11;2.20;99.90
60701;DHT22;46541;49.894;10.886;2023-12-07T08:16:43;2.20;99.90
60701;DHT22;46541;49.894;10.886;2023-12-07T08:19:10;2.20;99.90
60701;DHT22;46541;49.894;10.886;2023-12-07T08:21:37;2.20;99.90
60701;DHT22;46541;49.894;10.886;2023-12-07T08:24:04;2.20;99.90
60701;DHT22;46541;49.894;10.886;2023-12-07T08:26:32;2.20;99.90
60701;DHT22;46541;49.894;10.886;2023-12-07T08:28:59;2.20;99.90
60701;DHT22;46541;49.894;10.886;2023-12-07T08:31:25;2.30;99.90
60701;DHT22;46541;49.894;10.886;2023-12-07T08:33:52;2.30;99.90
60701;DHT22;46541;49.894;10.886;2023-12-07T08:36:19;2.30;99.90
60701;DHT22;46541;49.894;10.886;2023-12-07T08:38:46;2.30;99.90
60701;DHT22;46541;49.894;10.886;2023-12-07T08:41:13;2.30;99.90
60701;DHT22;46541;49.894;10.886;2023-12-07T08:43:40;2.30;99.90
60701;DHT22;46541;49.894;10.886;2023-12-07T08:46:07;2.40;99.90
60701;DHT22;46541;49.894;10.886;2023-12-07T08:48:36;2.40;99.90
60701;DHT22;46541;49.894;10.886;2023-12-07T08:51:08;2.40;99.90
60701;DHT22;46541;49.894;10.886;2023-12-07T08:53:35;2.50;99.90
60701;DHT22;46541;49.894;10.886;2023-12-07T08:56:02;2.50;99.90
60701;DHT22;46541;49.894;10.886;2023-12-07T08:58:29;2.60;99.90
60701;DHT22;46541;49.894;10.886;2023-12-07T09:00:56;2.60;99.90
60701;DHT22;46541;49.894;10.886;2023-12-07T09:03:23;2.70;99.90
60701;DHT22;46541;49.894;10.886;2023-12-07T09:05:59;2.80;99.90
60701;DHT22;46541;49.894;10.886;2023-12-07T09:08:26;2.90;99.90
60701;DHT22;46541;49.894;10.886;2023-12-07T09:10:52;2.90;99.90
60701;DHT22;46541;49.894;10.886;2023-12-07T09:13:19;3.00;99.90
60701;DHT22;46541;49.894;10.886;2023-12-07T09:15:46;3.00;99.90
60701;DHT22;46541;49.894;10.886;2023-12-07T09:18:13;3.10;99.90
60701;DHT22;46541;49.894;10.886;2023-12-07T09:20:40;3.20;99.90
60701;DHT22;46541;49.894;10.886;2023-12-07T09:23:13;3.20;99.90
60701;DHT22;46541;49.894;10.886;2023-12-07T09:25:42;3.30;99.90
60701;DHT22;46541;49.894;10.886;2023-12-07T09:28:09;3.30;99.90
60701;DHT22;46541;49.894;10.886;2023-12-07T09:30:36;3.30;99.90
60701;DHT22;46541;49.894;10.886;2023-12-07T09:33:03;3.30;99.90
60701;DHT22;46541;49.894;10.886;2023-12-07T09:35:30;3.30;99.90
60701;DHT22;46541;49.894;10.886;2023-12-07T09:37:57;3.30;99.90
60701;DHT22;46541;49.894;10.886;2023-12-07T09:40:24;3.30;99.90
60701;DHT22;46541;49.894;10.886;2023-12-07T09:42:52;3.40;99.90
60701;DHT22;46541;49.894;10.886;2023-12-07T09:45:19;3.40;99.90
60701;DHT22;46541;49.894;10.886;2023-12-07T09:47:54;3.50;99.90
60701;DHT22;46541;49.894;10.886;2023-12-07T09:50:22;3.50;99.90
60701;DHT22;46541;49.894;10.886;2023-12-07T09:52:50;3.60;99.90
60701;DHT22;46541;49.894;10.886;2023-12-07T09:55:32;3.60;99.90
60701;DHT22;46541;49.894;10.886;2023-12-07T09:58:00;3.70;99.90
60701;DHT22;46541;49.894;10.886;2023-12-07T10:00:27;3.70;99.90
60701;DHT22;46541;49.894;10.886;2023-12-07T10:02:55;3.80;99.90
60701;DHT22;46541;49.894;10.886;2023-12-07T10:05:22;3.90;99.90
60701;DHT22;46541;49.894;10.886;2023-12-07T10:07:50;4.00;99.90
60701;DHT22;46541;49.894;10.886;2023-12-07T10:10:18;4.10;99.90
60701;DHT22;46541;49.894;10.886;2023-12-07T10:12:55;4.10;99.90
60701;DHT22;46541;49.894;10.886;2023-12-07T10:15:24;4.10;99.90
60701;DHT22;46541;49.894;10.886;2023-12-07T10:20:25;4.10;99.90
60701;DHT22;46541;49.894;10.886;2023-12-07T10:25:34;4.30;99.90
60701;DHT22;46541;49.894;10.886;2023-12-07T10:28:02;4.40;99.90
60701;DHT22;46541;49.894;10.886;2023-12-07T10:30:34;4.50;99.90
60701;DHT22;46541;49.894;10.886;2023-12-07T10:33:06;4.60;99.90
60701;DHT22;46541;49.894;10.886;2023-12-07T10:35:41;4.70;99.90
60701;DHT22;46541;49.894;10.886;2023-12-07T10:38:09;4.80;99.90
60701;DHT22;46541;49.894;10.886;2023-12-07T10:40:36;4.80;99.90
60701;DHT22;46541;49.894;10.886;2023-12-07T10:43:05;4.90;99.90
60701;DHT22;46541;49.894;10.886;2023-12-07T10:45:33;4.90;99.90
60701;DHT22;46541;49.894;10.886;2023-12-07T10:48:05;4.90;99.90
60701;DHT22;46541;49.894;10.886;2023-12-07T10:50:40;4.80;99.90
60701;DHT22;46541;49.894;10.886;2023-12-07T10:53:13;4.80;99.90
60701;DHT22;46541;49.894;10.886;2023-12-07T10:55:45;4.70;99.90
60701;DHT22;46541;49.894;10.886;2023-12-07T10:58:14;4.70;99.90
60701;DHT22;46541;49.894;10.886;2023-12-07T11:00:43;4.70;99.90
60701;DHT22;46541;49.894;10.886;2023-12-07T11:03:15;4.70;99.90
60701;DHT22;46541;49.894;10.886;2023-12-07T11:05:46;4.70;99.90
60701;DHT22;46541;49.894;10.886;2023-12-07T11:08:42;4.70;99.90
60701;DHT22;46541;49.894;10.886;2023-12-07T11:11:28;4.70;99.90
60701;DHT22;46541;49.894;10.886;2023-12-07T11:14:02;4.70;99.90
60701;DHT22;46541;49.894;10.886;2023-12-07T11:16:33;4.80;99.90
60701;DHT22;46541;49.894;10.886;2023-12-07T11:19:01;4.80;99.90
60701;DHT22;46541;49.894;10.886;2023-12-07T11:21:28;4.80;99.90
60701;DHT22;46541;49.894;10.886;2023-12-07T11:23:59;4.70;99.90
60701;DHT22;46541;49.894;10.886;2023-12-07T11:26:26;4.80;99.90
60701;DHT22;46541;49.894;10.886;2023-12-07T11:28:55;4.80;99.90
60701;DHT22;46541;49.894;10.886;2023-12-07T11:31:22;4.90;99.90
60701;DHT22;46541;49.894;10.886;2023-12-07T11:33:49;5.00;99.90
60701;DHT22;46541;49.894;10.886;2023-12-07T11:36:16;5.00;99.90
60701;DHT22;46541;49.894;10.886;2023-12-07T11:39:15;5.00;99.90
60701;DHT22;46541;49.894;10.886;2023-12-07T11:41:54;4.90;99.90
60701;DHT22;46541;49.894;10.886;2023-12-07T11:44:34;5.10;99.90
60701;DHT22;46541;49.894;10.886;2023-12-07T11:47:04;5.20;99.90
60701;DHT22;46541;49.894;10.886;2023-12-07T11:49:32;5.10;99.90
60701;DHT22;46541;49.894;10.886;2023-12-07T11:52:19;5.00;99.90
60701;DHT22;46541;49.894;10.886;2023-12-07T11:54:47;4.90;99.90
60701;DHT22;46541;49.894;10.886;2023-12-07T11:57:15;4.80;99.90
60701;DHT22;46541;49.894;10.886;2023-12-07T11:59:46;4.90;99.90
60701;DHT22;46541;49.894;10.886;2023-12-07T12:02:16;5.00;99.90
60701;DHT22;46541;49.894;10.886;2023-12-07T12:04:43;5.00;99.90
60701;DHT22;46541;49.894;10.886;2023-12-07T12:07:10;5.00;99.90
60701;DHT22;46541;49.894;10.886;2023-12-07T12:09:37;4.90;99.90
60701;DHT22;46541;49.894;10.886;2023-12-07T12:12:04;4.90;99.90
60701;DHT22;46541;49.894;10.886;2023-12-07T12:14:31;4.90;99.90
60701;DHT22;46541;49.894;10.886;2023-12-07T12:16:58;4.80;99.90
60701;DHT22;46541;49.894;10.886;2023-12-07T12:19:25;4.60;99.90
60701;DHT22;46541;49.894;10.886;2023-12-07T12:22:03;4.60;99.90
60701;DHT22;46541;49.894;10.886;2023-12-07T12:24:35;4.60;99.90
60701;DHT22;46541;49.894;10.886;2023-12-07T12:27:02;4.50;99.90
60701;DHT22;46541;49.894;10.886;2023-12-07T12:29:29;4.50;99.90
60701;DHT22;46541;49.894;10.886;2023-12-07T12:32:02;4.50;99.90
60701;DHT22;46541;49.894;10.886;2023-12-07T12:34:30;4.40;99.90
60701;DHT22;46541;49.894;10.886;2023-12-07T12:36:59;4.50;99.90
60701;DHT22;46541;49.894;10.886;2023-12-07T12:39:29;4.60;99.90
60701;DHT22;46541;49.894;10.886;2023-12-07T12:42:00;4.60;99.90
60701;DHT22;46541;49.894;10.886;2023-12-07T12:44:28;4.60;99.90
60701;DHT22;46541;49.894;10.886;2023-12-07T12:47:05;4.80;99.90
60701;DHT22;46541;49.894;10.886;2023-12-07T12:49:38;4.90;99.90
60701;DHT22;46541;49.894;10.886;2023-12-07T12:52:10;5.10;99.90
60701;DHT22;46541;49.894;10.886;2023-12-07T12:54:39;5.20;99.90
60701;DHT22;46541;49.894;10.886;2023-12-07T12:57:09;5.30;99.90
60701;DHT22;46541;49.894;10.886;2023-12-07T12:59:36;5.40;99.90
60701;DHT22;46541;49.894;10.886;2023-12-07T13:02:03;5.60;99.90
60701;DHT22;46541;49.894;10.886;2023-12-07T13:04:33;5.60;99.90
60701;DHT22;46541;49.894;10.886;2023-12-07T13:07:03;5.60;99.90
60701;DHT22;46541;49.894;10.886;2023-12-07T13:09:30;5.60;99.90
60701;DHT22;46541;49.894;10.886;2023-12-07T13:11:58;5.50;99.90
60701;DHT22;46541;49.894;10.886;2023-12-07T13:14:27;5.40;99.90
60701;DHT22;46541;49.894;10.886;2023-12-07T13:16:57;5.20;99.90
60701;DHT22;46541;49.894;10.886;2023-12-07T13:19:24;5.10;99.90
60701;DHT22;46541;49.894;10.886;2023-12-07T13:21:51;4.90;99.90
60701;DHT22;46541;49.894;10.886;2023-12-07T13:24:18;4.80;99.90
60701;DHT22;46541;49.894;10.886;2023-12-07T13:26:45;4.70;99.90
60701;DHT22;46541;49.894;10.886;2023-12-07T13:29:14;4.70;99.90
60701;DHT22;46541;49.894;10.886;2023-12-07T13:31:54;4.70;99.90
60701;DHT22;46541;49.894;10.886;2023-12-07T13:34:21;4.50;99.90
60701;DHT22;46541;49.894;10.886;2023-12-07T13:36:50;4.40;99.90
60701;DHT22;46541;49.894;10.886;2023-12-07T13:39:16;4.40;99.90
60701;DHT22;46541;49.894;10.886;2023-12-07T13:41:56;4.40;99.90
60701;DHT22;46541;49.894;10.886;2023-12-07T13:44:23;4.30;99.90
60701;DHT22;46541;49.894;10.886;2023-12-07T13:46:55;4.30;99.90
60701;DHT22;46541;49.894;10.886;2023-12-07T13:49:23;4.20;99.90
60701;DHT22;46541;49.894;10.886;2023-12-07T13:51:59;4.10;99.90
60701;DHT22;46541;49.894;10.886;2023-12-07T13:54:32;4.10;99.90
60701;DHT22;46541;49.894;10.886;2023-12-07T13:57:19;4.00;99.90
60701;DHT22;46541;49.894;10.886;2023-12-07T13:59:47;4.00;99.90
60701;DHT22;46541;49.894;10.886;2023-12-07T14:02:14;4.00;99.90
60701;DHT22;46541;49.894;10.886;2023-12-07T14:04:42;3.90;99.90
60701;DHT22;46541;49.894;10.886;2023-12-07T14:07:14;3.90;99.90
60701;DHT22;46541;49.894;10.886;2023-12-07T14:09:43;3.90;99.90
60701;DHT22;46541;49.894;10.886;2023-12-07T14:12:23;3.80;99.90
60701;DHT22;46541;49.894;10.886;2023-12-07T14:14:50;3.80;99.90
60701;DHT22;46541;49.894;10.886;2023-12-07T14:17:17;3.80;99.90
60701;DHT22;46541;49.894;10.886;2023-12-07T14:19:48;3.70;99.90
60701;DHT22;46541;49.894;10.886;2023-12-07T14:22:17;3.80;99.90
60701;DHT22;46541;49.894;10.886;2023-12-07T14:24:44;3.70;99.90
60701;DHT22;46541;49.894;10.886;2023-12-07T14:27:11;3.70;99.90
60701;DHT22;46541;49.894;10.886;2023-12-07T14:29:38;3.70;99.90
60701;DHT22;46541;49.894;10.886;2023-12-07T14:32:05;3.70;99.90
60701;DHT22;46541;49.894;10.886;2023-12-07T14:34:32;3.60;99.90
60701;DHT22;46541;49.894;10.886;2023-12-07T14:37:03;3.60;99.90
60701;DHT22;46541;49.894;10.886;2023-12-07T14:39:32;3.60;99.90
60701;DHT22;46541;49.894;10.886;2023-12-07T14:42:00;3.60;99.90
60701;DHT22;46541;49.894;10.886;2023-12-07T14:44:27;3.60;99.90
60701;DHT22;46541;49.894;10.886;2023-12-07T14:46:56;3.50;99.90
60701;DHT22;46541;49.894;10.886;2023-12-07T14:49:23;3.50;99.90
60701;DHT22;46541;49.894;10.886;2023-12-07T14:51:51;3.50;99.90
60701;DHT22;46541;49.894;10.886;2023-12-07T14:54:18;3.50;99.90
60701;DHT22;46541;49.894;10.886;2023-12-07T14:56:52;3.50;99.90
60701;DHT22;46541;49.894;10.886;2023-12-07T14:59:19;3.50;99.90
60701;DHT22;46541;49.894;10.886;2023-12-07T15:01:46;3.50;99.90
60701;DHT22;46541;49.894;10.886;2023-12-07T15:04:13;3.50;99.90
60701;DHT22;46541;49.894;10.886;2023-12-07T15:06:56;3.40;99.90
60701;DHT22;46541;49.894;10.886;2023-12-07T15:09:23;3.40;99.90
60701;DHT22;46541;49.894;10.886;2023-12-07T15:11:50;3.30;99.90
60701;DHT22;46541;49.894;10.886;2023-12-07T15:14:17;3.30;99.90
60701;DHT22;46541;49.894;10.886;2023-12-07T15:17:02;3.30;99.90
60701;DHT22;46541;49.894;10.886;2023-12-07T15:19:30;3.20;99.90
60701;DHT22;46541;49.894;10.886;2023-12-07T15:21:59;3.20;99.90
60701;DHT22;46541;49.894;10.886;2023-12-07T15:24:26;3.20;99.90
60701;DHT22;46541;49.894;10.886;2023-12-07T15:27:05;3.10;99.90
60701;DHT22;46541;49.894;10.886;2023-12-07T15:29:32;3.10;99.90
60701;DHT22;46541;49.894;10.886;2023-12-07T15:32:01;3.10;99.90
60701;DHT22;46541;49.894;10.886;2023-12-07T15:34:29;3.00;99.90
60701;DHT22;46541;49.894;10.886;2023-12-07T15:37:05;3.00;99.90
60701;DHT22;46541;49.894;10.886;2023-12-07T15:39:32;2.90;99.90
60701;DHT22;46541;49.894;10.886;2023-12-07T15:41:59;2.90;99.90
60701;DHT22;46541;49.894;10.886;2023-12-07T15:44:29;2.90;99.90
60701;DHT22;46541;49.894;10.886;2023-12-07T15:46:57;2.90;99.90
60701;DHT22;46541;49.894;10.886;2023-12-07T15:49:24;2.80;99.90